sensor_id;sensor_type;location;lat;lon;timestamp;pressure;altitude;pressure_sealevel;temperature;humidity
68616;BME280;57261;47.504;19.084;2022-11-15T00:00:46;100977.84;;;13.55;69.20
68616;BME280;57261;47.504;19.084;2022-11-15T00:03:50;100948.44;;;13.23;65.23
68616;BME280;57261;47.504;19.084;2022-11-15T00:06:51;100971.31;;;13.40;64.61
68616;BME280;57261;47.504;19.084;2022-11-15T00:09:51;100971.31;;;13.39;63.86
68616;BME280;57261;47.504;19.084;2022-11-15T00:12:51;100961.69;;;13.45;70.19
68616;BME280;57261;47.504;19.084;2022-11-15T00:15:52;100971.56;;;13.65;70.56
68616;BME280;57261;47.504;19.084;2022-11-15T00:18:52;100973.91;;;13.40;65.85
68616;BME280;57261;47.504;19.084;2022-11-15T00:21:53;100977.56;;;13.65;75.11
68616;BME280;57261;47.504;19.084;2022-11-15T00:24:53;100969.97;;;13.59;69.29
68616;BME280;57261;47.504;19.084;2022-11-15T00:27:58;100970.25;;;13.81;72.72
68616;BME280;57261;47.504;19.084;2022-11-15T00:31:03;100977.69;;;13.93;74.80
68616;BME280;57261;47.504;19.084;2022-11-15T00:34:04;100972.06;;;14.09;74.59
68616;BME280;57261;47.504;19.084;2022-11-15T00:37:06;100959.00;;;14.15;76.69
68616;BME280;57261;47.504;19.084;2022-11-15T00:40:07;100957.88;;;14.23;73.77
68616;BME280;57261;47.504;19.084;2022-11-15T00:43:07;100955.00;;;14.34;76.29
68616;BME280;57261;47.504;19.084;2022-11-15T00:46:08;100954.00;;;14.38;75.71
68616;BME280;57261;47.504;19.084;2022-11-15T00:49:09;100953.78;;;14.45;74.62
68616;BME280;57261;47.504;19.084;2022-11-15T00:52:10;100943.25;;;14.50;72.43
68616;BME280;57261;47.504;19.084;2022-11-15T00:55:15;100945.66;;;14.57;75.65
68616;BME280;57261;47.504;19.084;2022-11-15T00:58:16;100941.16;;;14.62;74.45
68616;BME280;57261;47.504;19.084;2022-11-15T01:01:17;100923.13;;;14.29;64.92
68616;BME280;57261;47.504;19.084;2022-11-15T01:04:17;100944.31;;;14.44;72.45
68616;BME280;57261;47.504;19.084;2022-11-15T01:07:17;100944.22;;;14.17;64.77
68616;BME280;57261;47.504;19.084;2022-11-15T01:10:22;100928.63;;;13.87;63.22
68616;BME280;57261;47.504;19.084;2022-11-15T01:13:22;100927.25;;;13.74;63.14
68616;BME280;57261;47.504;19.084;2022-11-15T01:16:23;100922.19;;;13.69;63.05
68616;BME280;57261;47.504;19.084;2022-11-15T01:19:24;100925.50;;;13.42;63.73
68616;BME280;57261;47.504;19.084;2022-11-15T01:22:24;100929.91;;;13.39;64.48
68616;BME280;57261;47.504;19.084;2022-11-15T01:25:24;100919.91;;;13.91;76.16
68616;BME280;57261;47.504;19.084;2022-11-15T01:28:25;100919.38;;;14.08;72.64
68616;BME280;57261;47.504;19.084;2022-11-15T01:31:25;100911.44;;;13.84;65.36
68616;BME280;57261;47.504;19.084;2022-11-15T01:34:26;100913.81;;;13.60;64.00
68616;BME280;57261;47.504;19.084;2022-11-15T01:37:26;100909.63;;;13.56;63.88
68616;BME280;57261;47.504;19.084;2022-11-15T01:40:26;100903.22;;;13.37;63.89
68616;BME280;57261;47.504;19.084;2022-11-15T01:43:33;100921.34;;;13.37;67.75
68616;BME280;57261;47.504;19.084;2022-11-15T01:46:35;100915.28;;;13.70;72.66
68616;BME280;57261;47.504;19.084;2022-11-15T01:49:39;100906.06;;;13.92;74.33
68616;BME280;57261;47.504;19.084;2022-11-15T01:52:41;100913.56;;;14.00;74.46
68616;BME280;57261;47.504;19.084;2022-11-15T01:55:42;100909.50;;;14.22;75.48
68616;BME280;57261;47.504;19.084;2022-11-15T01:58:44;100908.69;;;14.20;72.09
68616;BME280;57261;47.504;19.084;2022-11-15T02:01:45;100907.56;;;14.30;75.11
68616;BME280;57261;47.504;19.084;2022-11-15T02:04:47;100887.50;;;14.35;76.24
68616;BME280;57261;47.504;19.084;2022-11-15T02:07:48;100902.72;;;14.47;71.95
68616;BME280;57261;47.504;19.084;2022-11-15T02:10:48;100889.59;;;14.23;64.92
68616;BME280;57261;47.504;19.084;2022-11-15T02:13:49;100883.53;;;13.94;63.56
68616;BME280;57261;47.504;19.084;2022-11-15T02:20:34;100888.94;;;13.54;63.21
68616;BME280;57261;47.504;19.084;2022-11-15T02:30:45;100868.19;;;13.56;nan
68616;BME280;57261;47.504;19.084;2022-11-15T02:34:02;100874.59;;;13.43;63.50
68616;BME280;57261;47.504;19.084;2022-11-15T02:43:27;100867.81;;;13.69;72.09
68616;BME280;57261;47.504;19.084;2022-11-15T02:46:58;100872.72;;;14.08;77.26
68616;BME280;57261;47.504;19.084;2022-11-15T02:50:20;100869.91;;;14.17;74.10
68616;BME280;57261;47.504;19.084;2022-11-15T02:53:25;100866.38;;;14.20;74.36
68616;BME280;57261;47.504;19.084;2022-11-15T02:56:26;100875.75;;;14.24;72.67
68616;BME280;57261;47.504;19.084;2022-11-15T02:59:55;100872.31;;;14.23;76.23
68616;BME280;57261;47.504;19.084;2022-11-15T03:03:04;100866.69;;;14.38;75.23
68616;BME280;57261;47.504;19.084;2022-11-15T03:09:21;100855.88;;;14.24;66.81
68616;BME280;57261;47.504;19.084;2022-11-15T03:15:45;100871.00;;;14.38;76.40
68616;BME280;57261;47.504;19.084;2022-11-15T03:18:59;100905.78;;;14.60;76.73
68616;BME280;57261;47.504;19.084;2022-11-15T03:22:03;100861.25;;;14.46;67.52
68616;BME280;57261;47.504;19.084;2022-11-15T03:25:07;100826.28;;;14.31;76.05
68616;BME280;57261;47.504;19.084;2022-11-15T03:28:13;100850.38;;;14.62;75.66
68616;BME280;57261;47.504;19.084;2022-11-15T03:31:19;100848.38;;;14.70;75.33
68616;BME280;57261;47.504;19.084;2022-11-15T03:34:49;100839.78;;;14.68;75.40
68616;BME280;57261;47.504;19.084;2022-11-15T03:41:02;100836.91;;;14.77;75.97
68616;BME280;57261;47.504;19.084;2022-11-15T03:47:32;100845.19;;;14.88;75.44
68616;BME280;57261;47.504;19.084;2022-11-15T03:50:34;100838.22;;;14.90;73.46
68616;BME280;57261;47.504;19.084;2022-11-15T03:53:35;100828.53;;;14.95;75.22
68616;BME280;57261;47.504;19.084;2022-11-15T03:56:35;100821.53;;;14.97;73.27
68616;BME280;57261;47.504;19.084;2022-11-15T03:59:36;100819.16;;;14.91;71.94
68616;BME280;57261;47.504;19.084;2022-11-15T04:02:36;100814.06;;;14.88;73.48
68616;BME280;57261;47.504;19.084;2022-11-15T04:05:37;100804.88;;;14.78;67.55
68616;BME280;57261;47.504;19.084;2022-11-15T04:08:37;100802.91;;;14.84;74.85
68616;BME280;57261;47.504;19.084;2022-11-15T04:11:38;100786.50;;;14.84;75.27
68616;BME280;57261;47.504;19.084;2022-11-15T04:14:38;100793.00;;;14.97;74.27
68616;BME280;57261;47.504;19.084;2022-11-15T04:18:02;100775.03;;;14.91;73.83
68616;BME280;57261;47.504;19.084;2022-11-15T04:21:02;100796.56;;;14.93;73.65
68616;BME280;57261;47.504;19.084;2022-11-15T04:24:22;100799.00;;;14.99;75.36
68616;BME280;57261;47.504;19.084;2022-11-15T04:27:22;100801.00;;;14.91;72.38
68616;BME280;57261;47.504;19.084;2022-11-15T04:30:22;100798.25;;;14.95;72.86
68616;BME280;57261;47.504;19.084;2022-11-15T04:33:24;100807.97;;;14.89;75.12
68616;BME280;57261;47.504;19.084;2022-11-15T04:36:24;100797.28;;;14.98;74.16
68616;BME280;57261;47.504;19.084;2022-11-15T04:39:43;100796.22;;;15.03;75.09
68616;BME280;57261;47.504;19.084;2022-11-15T04:42:44;100791.69;;;15.10;72.13
68616;BME280;57261;47.504;19.084;2022-11-15T04:45:44;100782.34;;;15.04;73.84
68616;BME280;57261;47.504;19.084;2022-11-15T04:48:45;100778.03;;;15.03;74.70
68616;BME280;57261;47.504;19.084;2022-11-15T04:51:45;100780.41;;;15.11;74.53
68616;BME280;57261;47.504;19.084;2022-11-15T04:54:46;100757.47;;;14.99;74.91
68616;BME280;57261;47.504;19.084;2022-11-15T04:57:46;100774.94;;;15.18;74.92
68616;BME280;57261;47.504;19.084;2022-11-15T05:00:46;100768.09;;;15.16;75.03
68616;BME280;57261;47.504;19.084;2022-11-15T05:03:50;100765.56;;;15.14;72.73
68616;BME280;57261;47.504;19.084;2022-11-15T05:07:09;100766.41;;;15.15;73.78
68616;BME280;57261;47.504;19.084;2022-11-15T05:10:09;100773.06;;;15.22;75.05
68616;BME280;57261;47.504;19.084;2022-11-15T05:13:10;100770.75;;;15.14;74.61
68616;BME280;57261;47.504;19.084;2022-11-15T05:16:10;100772.13;;;15.26;74.58
68616;BME280;57261;47.504;19.084;2022-11-15T05:19:11;100767.88;;;15.22;73.93
68616;BME280;57261;47.504;19.084;2022-11-15T05:22:14;100773.06;;;15.22;73.52
68616;BME280;57261;47.504;19.084;2022-11-15T05:25:15;100760.53;;;15.10;74.39
68616;BME280;57261;47.504;19.084;2022-11-15T05:28:15;100778.38;;;15.19;74.70
68616;BME280;57261;47.504;19.084;2022-11-15T05:31:16;100770.47;;;15.22;74.61
68616;BME280;57261;47.504;19.084;2022-11-15T05:34:16;100781.41;;;15.31;74.87
68616;BME280;57261;47.504;19.084;2022-11-15T05:37:18;100772.06;;;15.27;74.10
68616;BME280;57261;47.504;19.084;2022-11-15T05:40:18;100760.81;;;15.27;74.41
68616;BME280;57261;47.504;19.084;2022-11-15T05:43:19;100780.38;;;15.37;73.55
68616;BME280;57261;47.504;19.084;2022-11-15T05:46:19;100781.69;;;15.24;68.54
68616;BME280;57261;47.504;19.084;2022-11-15T05:49:22;100760.41;;;15.13;73.31
68616;BME280;57261;47.504;19.084;2022-11-15T05:52:27;100778.16;;;15.26;73.84
68616;BME280;57261;47.504;19.084;2022-11-15T05:55:30;100759.13;;;15.26;73.12
68616;BME280;57261;47.504;19.084;2022-11-15T05:58:32;100765.97;;;15.28;72.97
68616;BME280;57261;47.504;19.084;2022-11-15T06:01:33;100762.41;;;15.31;74.23
68616;BME280;57261;47.504;19.084;2022-11-15T06:04:33;100760.75;;;15.28;69.17
68616;BME280;57261;47.504;19.084;2022-11-15T06:07:33;100765.59;;;15.13;69.87
68616;BME280;57261;47.504;19.084;2022-11-15T06:10:34;100762.75;;;15.20;74.11
68616;BME280;57261;47.504;19.084;2022-11-15T06:13:37;100762.22;;;15.11;67.34
68616;BME280;57261;47.504;19.084;2022-11-15T06:16:37;100763.28;;;15.05;71.60
68616;BME280;57261;47.504;19.084;2022-11-15T06:19:38;100750.06;;;15.11;73.49
68616;BME280;57261;47.504;19.084;2022-11-15T06:22:38;100753.06;;;15.25;74.63
68616;BME280;57261;47.504;19.084;2022-11-15T06:25:38;100757.63;;;15.19;73.70
68616;BME280;57261;47.504;19.084;2022-11-15T06:28:39;100763.41;;;15.27;72.86
68616;BME280;57261;47.504;19.084;2022-11-15T06:31:39;100780.59;;;15.31;74.19
68616;BME280;57261;47.504;19.084;2022-11-15T06:34:39;100773.56;;;15.33;73.49
68616;BME280;57261;47.504;19.084;2022-11-15T06:37:41;100685.19;;;14.87;74.14
68616;BME280;57261;47.504;19.084;2022-11-15T06:40:43;100762.13;;;15.38;74.10
68616;BME280;57261;47.504;19.084;2022-11-15T06:43:43;100768.06;;;15.42;74.09
68616;BME280;57261;47.504;19.084;2022-11-15T06:46:45;100768.84;;;15.44;73.84
68616;BME280;57261;47.504;19.084;2022-11-15T06:49:45;100773.03;;;15.48;73.93
68616;BME280;57261;47.504;19.084;2022-11-15T06:52:46;100774.72;;;15.49;74.15
68616;BME280;57261;47.504;19.084;2022-11-15T06:55:46;100767.91;;;15.46;73.96
68616;BME280;57261;47.504;19.084;2022-11-15T06:58:47;100767.59;;;15.53;74.01
68616;BME280;57261;47.504;19.084;2022-11-15T07:01:49;100768.47;;;15.54;74.11
68616;BME280;57261;47.504;19.084;2022-11-15T07:04:49;100743.50;;;15.50;73.39
68616;BME280;57261;47.504;19.084;2022-11-15T07:07:54;100758.00;;;15.55;73.93
68616;BME280;57261;47.504;19.084;2022-11-15T07:11:00;100763.38;;;15.51;72.47
68616;BME280;57261;47.504;19.084;2022-11-15T07:14:02;100766.78;;;15.53;73.93
68616;BME280;57261;47.504;19.084;2022-11-15T07:17:04;100748.75;;;15.49;73.86
68616;BME280;57261;47.504;19.084;2022-11-15T07:20:05;100757.72;;;15.63;73.60
68616;BME280;57261;47.504;19.084;2022-11-15T07:23:06;100745.69;;;15.60;73.37
68616;BME280;57261;47.504;19.084;2022-11-15T07:26:07;100749.09;;;15.62;72.76
68616;BME280;57261;47.504;19.084;2022-11-15T07:29:08;100760.28;;;15.64;73.61
68616;BME280;57261;47.504;19.084;2022-11-15T07:32:11;100749.91;;;15.64;72.41
68616;BME280;57261;47.504;19.084;2022-11-15T07:35:11;100750.00;;;15.61;71.84
68616;BME280;57261;47.504;19.084;2022-11-15T07:38:12;100749.19;;;15.59;73.32
68616;BME280;57261;47.504;19.084;2022-11-15T07:41:12;100755.84;;;15.66;72.08
68616;BME280;57261;47.504;19.084;2022-11-15T07:44:13;100757.56;;;15.67;73.57
68616;BME280;57261;47.504;19.084;2022-11-15T07:47:14;100762.88;;;15.64;71.96
68616;BME280;57261;47.504;19.084;2022-11-15T07:50:16;100742.88;;;15.66;73.53
68616;BME280;57261;47.504;19.084;2022-11-15T07:53:16;100729.09;;;15.64;73.34
68616;BME280;57261;47.504;19.084;2022-11-15T07:56:17;100740.06;;;15.72;72.23
68616;BME280;57261;47.504;19.084;2022-11-15T07:59:18;100749.75;;;15.67;73.64
68616;BME280;57261;47.504;19.084;2022-11-15T08:02:20;100752.31;;;15.69;73.30
68616;BME280;57261;47.504;19.084;2022-11-15T08:05:21;100747.97;;;15.69;73.70
68616;BME280;57261;47.504;19.084;2022-11-15T08:08:21;100744.34;;;15.73;73.76
68616;BME280;57261;47.504;19.084;2022-11-15T08:11:22;100741.47;;;15.81;72.91
68616;BME280;57261;47.504;19.084;2022-11-15T08:14:22;100735.38;;;15.82;73.59
68616;BME280;57261;47.504;19.084;2022-11-15T08:17:23;100725.88;;;15.81;73.23
68616;BME280;57261;47.504;19.084;2022-11-15T08:20:26;100729.13;;;15.86;72.25
68616;BME280;57261;47.504;19.084;2022-11-15T08:23:29;100718.00;;;15.82;73.44
68616;BME280;57261;47.504;19.084;2022-11-15T08:26:30;100717.22;;;15.80;71.47
68616;BME280;57261;47.504;19.084;2022-11-15T08:29:30;100690.69;;;15.72;72.18
68616;BME280;57261;47.504;19.084;2022-11-15T08:32:32;100706.88;;;15.79;73.27
68616;BME280;57261;47.504;19.084;2022-11-15T08:35:32;100699.09;;;15.79;72.90
68616;BME280;57261;47.504;19.084;2022-11-15T08:38:33;100690.56;;;15.75;72.26
68616;BME280;57261;47.504;19.084;2022-11-15T08:41:36;100709.88;;;15.68;72.88
68616;BME280;57261;47.504;19.084;2022-11-15T08:44:37;100702.59;;;15.78;73.43
68616;BME280;57261;47.504;19.084;2022-11-15T08:47:37;100698.03;;;15.83;73.64
68616;BME280;57261;47.504;19.084;2022-11-15T08:50:38;100694.53;;;15.84;72.32
68616;BME280;57261;47.504;19.084;2022-11-15T08:53:38;100692.84;;;15.83;72.83
68616;BME280;57261;47.504;19.084;2022-11-15T08:56:39;100696.97;;;15.88;73.15
68616;BME280;57261;47.504;19.084;2022-11-15T08:59:40;100691.75;;;15.67;71.74
68616;BME280;57261;47.504;19.084;2022-11-15T09:02:40;100690.44;;;15.78;73.26
68616;BME280;57261;47.504;19.084;2022-11-15T09:05:41;100691.19;;;15.82;71.33
68616;BME280;57261;47.504;19.084;2022-11-15T09:08:41;100694.63;;;15.82;72.60
68616;BME280;57261;47.504;19.084;2022-11-15T09:11:42;100677.00;;;15.67;72.23
68616;BME280;57261;47.504;19.084;2022-11-15T09:14:42;100678.19;;;15.82;73.18
68616;BME280;57261;47.504;19.084;2022-11-15T09:17:44;100667.38;;;15.92;72.90
68616;BME280;57261;47.504;19.084;2022-11-15T09:20:44;100660.16;;;15.99;71.61
68616;BME280;57261;47.504;19.084;2022-11-15T09:23:45;100661.91;;;15.98;72.74
68616;BME280;57261;47.504;19.084;2022-11-15T09:26:45;100656.59;;;16.01;72.54
68616;BME280;57261;47.504;19.084;2022-11-15T09:29:45;100662.50;;;16.05;72.60
68616;BME280;57261;47.504;19.084;2022-11-15T09:32:46;100655.44;;;16.08;71.91
68616;BME280;57261;47.504;19.084;2022-11-15T09:35:46;100679.97;;;16.01;71.73
68616;BME280;57261;47.504;19.084;2022-11-15T09:38:47;100651.31;;;16.03;70.87
68616;BME280;57261;47.504;19.084;2022-11-15T09:45:34;100647.88;;;16.02;72.81
68616;BME280;57261;47.504;19.084;2022-11-15T09:48:48;100643.72;;;15.98;73.11
68616;BME280;57261;47.504;19.084;2022-11-15T09:51:51;100626.00;;;15.86;73.05
68616;BME280;57261;47.504;19.084;2022-11-15T09:54:53;100639.19;;;16.03;72.78
68616;BME280;57261;47.504;19.084;2022-11-15T09:58:00;100641.63;;;16.06;73.09
68616;BME280;57261;47.504;19.084;2022-11-15T10:01:08;100639.97;;;16.05;72.83
68616;BME280;57261;47.504;19.084;2022-11-15T10:04:11;100641.44;;;16.11;72.00
68616;BME280;57261;47.504;19.084;2022-11-15T10:07:54;100634.44;;;16.13;72.59
68616;BME280;57261;47.504;19.084;2022-11-15T10:11:08;100630.03;;;16.15;72.96
68616;BME280;57261;47.504;19.084;2022-11-15T10:14:19;100629.25;;;16.13;72.97
68616;BME280;57261;47.504;19.084;2022-11-15T10:21:02;100583.38;;;15.90;72.98
68616;BME280;57261;47.504;19.084;2022-11-15T10:24:10;100576.41;;;15.91;72.92
68616;BME280;57261;47.504;19.084;2022-11-15T10:27:17;100587.28;;;16.00;72.84
68616;BME280;57261;47.504;19.084;2022-11-15T10:30:20;100602.41;;;16.12;72.79
68616;BME280;57261;47.504;19.084;2022-11-15T10:33:37;100597.06;;;16.15;73.00
68616;BME280;57261;47.504;19.084;2022-11-15T10:36:47;100592.03;;;16.11;73.08
68616;BME280;57261;47.504;19.084;2022-11-15T10:40:05;100590.97;;;16.16;72.98
68616;BME280;57261;47.504;19.084;2022-11-15T10:46:21;100583.03;;;16.19;73.01
68616;BME280;57261;47.504;19.084;2022-11-15T10:49:25;100571.78;;;16.19;72.80
68616;BME280;57261;47.504;19.084;2022-11-15T10:52:30;100565.59;;;16.21;72.87
68616;BME280;57261;47.504;19.084;2022-11-15T10:55:33;100568.88;;;16.26;72.37
68616;BME280;57261;47.504;19.084;2022-11-15T10:58:43;100570.78;;;16.21;72.84
68616;BME280;57261;47.504;19.084;2022-11-15T11:01:48;100561.19;;;16.23;72.73
68616;BME280;57261;47.504;19.084;2022-11-15T11:04:51;100547.19;;;16.25;71.03
68616;BME280;57261;47.504;19.084;2022-11-15T11:11:16;100548.91;;;16.26;72.25
68616;BME280;57261;47.504;19.084;2022-11-15T11:18:12;100537.28;;;16.35;72.30
68616;BME280;57261;47.504;19.084;2022-11-15T11:21:29;100531.34;;;16.31;72.43
68616;BME280;57261;47.504;19.084;2022-11-15T11:28:00;100527.59;;;16.38;71.84
68616;BME280;57261;47.504;19.084;2022-11-15T11:34:45;100529.53;;;16.33;72.21
68616;BME280;57261;47.504;19.084;2022-11-15T11:41:24;100523.56;;;16.31;72.31
68616;BME280;57261;47.504;19.084;2022-11-15T11:44:40;100507.16;;;16.29;72.33
68616;BME280;57261;47.504;19.084;2022-11-15T11:48:11;100505.97;;;16.36;72.50
68616;BME280;57261;47.504;19.084;2022-11-15T11:51:41;100496.84;;;16.28;67.14
68616;BME280;57261;47.504;19.084;2022-11-15T12:01:11;100472.31;;;16.14;72.24
68616;BME280;57261;47.504;19.084;2022-11-15T12:07:21;100476.91;;;16.27;72.68
68616;BME280;57261;47.504;19.084;2022-11-15T12:10:28;100454.44;;;16.26;72.26
68616;BME280;57261;47.504;19.084;2022-11-15T12:13:30;100464.59;;;16.32;72.32
68616;BME280;57261;47.504;19.084;2022-11-15T12:16:42;100465.16;;;16.38;72.14
68616;BME280;57261;47.504;19.084;2022-11-15T12:19:43;100475.56;;;16.38;72.14
68616;BME280;57261;47.504;19.084;2022-11-15T12:28:54;100452.22;;;16.37;71.75
68616;BME280;57261;47.504;19.084;2022-11-15T12:31:57;100432.50;;;16.31;71.33
68616;BME280;57261;47.504;19.084;2022-11-15T12:35:02;100426.66;;;16.26;72.28
68616;BME280;57261;47.504;19.084;2022-11-15T12:38:10;100441.09;;;16.33;72.20
68616;BME280;57261;47.504;19.084;2022-11-15T12:41:14;100448.00;;;16.34;71.34
68616;BME280;57261;47.504;19.084;2022-11-15T12:47:31;100425.56;;;16.32;72.32
68616;BME280;57261;47.504;19.084;2022-11-15T12:57:29;100427.47;;;16.27;72.27
68616;BME280;57261;47.504;19.084;2022-11-15T13:03:30;100418.81;;;16.28;72.51
68616;BME280;57261;47.504;19.084;2022-11-15T13:09:55;100392.25;;;16.20;72.54
68616;BME280;57261;47.504;19.084;2022-11-15T13:13:01;100411.88;;;16.28;72.52
68616;BME280;57261;47.504;19.084;2022-11-15T13:16:01;100416.13;;;16.29;72.33
68616;BME280;57261;47.504;19.084;2022-11-15T13:19:03;100423.09;;;16.29;72.62
68616;BME280;57261;47.504;19.084;2022-11-15T13:22:09;100421.13;;;16.34;72.54
68616;BME280;57261;47.504;19.084;2022-11-15T13:28:51;100362.28;;;15.93;72.50
68616;BME280;57261;47.504;19.084;2022-11-15T13:31:54;100403.00;;;16.32;72.47
68616;BME280;57261;47.504;19.084;2022-11-15T13:34:55;100402.88;;;16.35;72.24
68616;BME280;57261;47.504;19.084;2022-11-15T13:37:56;100401.19;;;16.34;72.11
68616;BME280;57261;47.504;19.084;2022-11-15T13:40:59;100394.59;;;16.26;66.34
68616;BME280;57261;47.504;19.084;2022-11-15T13:44:01;100392.13;;;16.23;72.24
68616;BME280;57261;47.504;19.084;2022-11-15T13:47:13;100383.97;;;16.32;71.44
68616;BME280;57261;47.504;19.084;2022-11-15T13:50:14;100390.13;;;16.29;72.42
68616;BME280;57261;47.504;19.084;2022-11-15T13:53:15;100370.25;;;16.28;71.62
68616;BME280;57261;47.504;19.084;2022-11-15T13:56:16;100361.19;;;16.17;69.63
68616;BME280;57261;47.504;19.084;2022-11-15T13:59:29;100361.63;;;16.26;72.42
68616;BME280;57261;47.504;19.084;2022-11-15T14:02:38;100345.72;;;16.14;72.36
68616;BME280;57261;47.504;19.084;2022-11-15T14:05:38;100349.22;;;16.13;72.22
68616;BME280;57261;47.504;19.084;2022-11-15T14:12:26;100352.41;;;16.20;72.20
68616;BME280;57261;47.504;19.084;2022-11-15T14:18:59;100365.13;;;16.25;73.08
68616;BME280;57261;47.504;19.084;2022-11-15T14:25:20;100349.72;;;16.03;71.89
68616;BME280;57261;47.504;19.084;2022-11-15T14:31:22;100341.38;;;16.15;72.24
68616;BME280;57261;47.504;19.084;2022-11-15T14:34:23;100339.63;;;16.15;73.05
68616;BME280;57261;47.504;19.084;2022-11-15T14:37:31;100337.81;;;16.17;73.03
68616;BME280;57261;47.504;19.084;2022-11-15T14:40:34;100329.84;;;16.20;72.84
68616;BME280;57261;47.504;19.084;2022-11-15T14:43:35;100331.69;;;16.18;72.62
68616;BME280;57261;47.504;19.084;2022-11-15T14:46:35;100324.91;;;16.14;70.49
68616;BME280;57261;47.504;19.084;2022-11-15T14:49:35;100318.19;;;16.10;72.88
68616;BME280;57261;47.504;19.084;2022-11-15T14:52:36;100309.31;;;16.14;72.95
68616;BME280;57261;47.504;19.084;2022-11-15T14:55:36;100304.28;;;16.11;72.51
68616;BME280;57261;47.504;19.084;2022-11-15T14:58:37;100306.81;;;16.13;72.92
68616;BME280;57261;47.504;19.084;2022-11-15T15:01:37;100305.81;;;15.78;64.18
68616;BME280;57261;47.504;19.084;2022-11-15T15:04:38;100309.13;;;15.82;72.26
68616;BME280;57261;47.504;19.084;2022-11-15T15:07:41;100297.31;;;15.75;73.46
68616;BME280;57261;47.504;19.084;2022-11-15T15:10:44;100308.69;;;15.91;73.32
68616;BME280;57261;47.504;19.084;2022-11-15T15:13:44;100318.47;;;16.04;73.67
68616;BME280;57261;47.504;19.084;2022-11-15T15:16:44;100301.97;;;16.05;71.93
68616;BME280;57261;47.504;19.084;2022-11-15T15:19:47;100307.09;;;16.07;73.24
68616;BME280;57261;47.504;19.084;2022-11-15T15:22:47;100302.72;;;16.07;72.59
68616;BME280;57261;47.504;19.084;2022-11-15T15:25:48;100287.69;;;15.95;72.53
68616;BME280;57261;47.504;19.084;2022-11-15T15:28:53;100287.41;;;16.01;72.92
68616;BME280;57261;47.504;19.084;2022-11-15T15:31:53;100285.28;;;16.09;73.20
68616;BME280;57261;47.504;19.084;2022-11-15T15:34:53;100302.72;;;16.07;73.17
68616;BME280;57261;47.504;19.084;2022-11-15T15:37:54;100307.16;;;16.05;70.31
68616;BME280;57261;47.504;19.084;2022-11-15T15:40:54;100308.69;;;16.09;73.13
68616;BME280;57261;47.504;19.084;2022-11-15T15:43:55;100304.41;;;16.08;72.24
68616;BME280;57261;47.504;19.084;2022-11-15T15:46:55;100306.81;;;16.13;72.95
68616;BME280;57261;47.504;19.084;2022-11-15T15:49:57;100298.09;;;16.14;73.25
68616;BME280;57261;47.504;19.084;2022-11-15T15:52:59;100296.31;;;16.14;73.34
68616;BME280;57261;47.504;19.084;2022-11-15T15:56:03;100292.03;;;16.13;73.18
68616;BME280;57261;47.504;19.084;2022-11-15T15:59:04;100286.13;;;16.10;72.25
68616;BME280;57261;47.504;19.084;2022-11-15T16:02:05;100287.78;;;16.12;73.01
68616;BME280;57261;47.504;19.084;2022-11-15T16:05:05;100284.94;;;16.17;73.04
68616;BME280;57261;47.504;19.084;2022-11-15T16:08:16;100280.72;;;16.14;72.80
68616;BME280;57261;47.504;19.084;2022-11-15T16:11:18;100284.88;;;16.18;73.15
68616;BME280;57261;47.504;19.084;2022-11-15T16:14:18;100280.66;;;16.16;72.08
68616;BME280;57261;47.504;19.084;2022-11-15T16:17:31;100277.41;;;16.11;72.80
68616;BME280;57261;47.504;19.084;2022-11-15T16:20:46;100283.75;;;16.05;72.81
68616;BME280;57261;47.504;19.084;2022-11-15T16:23:49;100277.69;;;16.05;73.14
68616;BME280;57261;47.504;19.084;2022-11-15T16:26:50;100276.78;;;16.06;73.26
68616;BME280;57261;47.504;19.084;2022-11-15T16:29:51;100270.97;;;16.01;73.38
68616;BME280;57261;47.504;19.084;2022-11-15T16:32:52;100279.97;;;16.12;72.53
68616;BME280;57261;47.504;19.084;2022-11-15T16:35:53;100280.88;;;16.11;73.14
68616;BME280;57261;47.504;19.084;2022-11-15T16:38:54;100267.00;;;16.11;72.84
68616;BME280;57261;47.504;19.084;2022-11-15T16:41:54;100274.81;;;16.11;73.12
68616;BME280;57261;47.504;19.084;2022-11-15T16:44:54;100260.19;;;16.08;73.28
68616;BME280;57261;47.504;19.084;2022-11-15T16:47:55;100252.69;;;16.02;73.21
68616;BME280;57261;47.504;19.084;2022-11-15T16:50:57;100282.50;;;16.14;73.21
68616;BME280;57261;47.504;19.084;2022-11-15T16:53:58;100257.25;;;16.16;73.31
68616;BME280;57261;47.504;19.084;2022-11-15T16:56:58;100256.41;;;16.15;72.94
68616;BME280;57261;47.504;19.084;2022-11-15T16:59:58;100258.94;;;16.17;72.85
68616;BME280;57261;47.504;19.084;2022-11-15T17:02:59;100251.13;;;16.17;72.98
68616;BME280;57261;47.504;19.084;2022-11-15T17:05:59;100255.50;;;16.16;73.21
68616;BME280;57261;47.504;19.084;2022-11-15T17:09:03;100250.91;;;16.21;72.92
68616;BME280;57261;47.504;19.084;2022-11-15T17:12:03;100261.59;;;16.15;73.23
68616;BME280;57261;47.504;19.084;2022-11-15T17:15:05;100251.22;;;16.15;72.68
68616;BME280;57261;47.504;19.084;2022-11-15T17:18:10;100240.88;;;16.14;73.21
68616;BME280;57261;47.504;19.084;2022-11-15T17:21:15;100232.38;;;16.10;72.90
68616;BME280;57261;47.504;19.084;2022-11-15T17:24:16;100237.22;;;16.18;73.13
68616;BME280;57261;47.504;19.084;2022-11-15T17:27:16;100234.69;;;16.16;73.10
68616;BME280;57261;47.504;19.084;2022-11-15T17:30:17;100237.06;;;16.21;73.09
68616;BME280;57261;47.504;19.084;2022-11-15T17:33:19;100234.91;;;16.12;71.81